createdAt,value
2023-05-17T00:00:10.628Z,13.30
2023-05-17T00:02:59.128Z,13.29
2023-05-17T00:05:27.662Z,13.29
2023-05-17T00:07:56.094Z,13.29
2023-05-17T00:10:24.374Z,13.29
2023-05-17T00:12:52.645Z,13.28
2023-05-17T00:15:20.967Z,13.28
2023-05-17T00:17:49.355Z,13.29
2023-05-17T00:20:17.847Z,13.30
2023-05-17T00:22:47.490Z,13.30
2023-05-17T00:25:15.817Z,13.32
2023-05-17T00:27:44.015Z,13.33
2023-05-17T00:30:12.759Z,13.33
2023-05-17T00:32:40.984Z,13.34
2023-05-17T00:35:09.300Z,13.33
2023-05-17T00:37:37.748Z,13.33
2023-05-17T00:40:08.962Z,13.33
2023-05-17T00:42:37.288Z,13.33
2023-05-17T00:45:06.662Z,13.34
2023-05-17T00:47:34.969Z,13.35
2023-05-17T00:50:05.107Z,13.35
2023-05-17T00:52:33.869Z,13.35
2023-05-17T00:55:03.242Z,13.36
2023-05-17T00:57:32.344Z,13.36
2023-05-17T01:00:03.686Z,13.35
2023-05-17T01:02:32.159Z,13.35
2023-05-17T01:05:00.979Z,13.35
2023-05-17T01:07:30.003Z,13.34
2023-05-17T01:09:59.110Z,13.32
2023-05-17T01:12:53.665Z,13.32
2023-05-17T01:15:28.647Z,13.31
2023-05-17T01:18:28.493Z,13.31
2023-05-17T01:21:01.892Z,13.29
2023-05-17T01:23:49.788Z,13.27
2023-05-17T01:26:41.156Z,13.26
2023-05-17T01:29:10.133Z,13.25
2023-05-17T01:31:39.347Z,13.26
2023-05-17T01:34:09.209Z,13.26
2023-05-17T01:36:37.561Z,13.26
2023-05-17T01:39:05.940Z,13.25
2023-05-17T01:41:42.485Z,13.25
2023-05-17T01:44:20.061Z,13.25
2023-05-17T01:46:55.991Z,13.27
2023-05-17T01:49:34.267Z,13.28
2023-05-17T01:52:09.177Z,13.29
2023-05-17T01:54:39.313Z,13.30
2023-05-17T01:57:10.113Z,13.31
2023-05-17T01:59:40.292Z,13.31
2023-05-17T02:02:11.507Z,13.31
2023-05-17T02:04:40.109Z,13.32
2023-05-17T02:07:08.466Z,13.32
2023-05-17T02:09:36.728Z,13.32
2023-05-17T02:12:05.593Z,13.32
2023-05-17T02:14:35.904Z,13.32
2023-05-17T02:17:06.069Z,13.31
2023-05-17T02:19:34.576Z,13.29
2023-05-17T02:22:02.937Z,13.27
2023-05-17T02:24:31.440Z,13.24
2023-05-17T02:26:59.840Z,13.23
2023-05-17T02:29:28.194Z,13.22
2023-05-17T02:31:56.447Z,13.19
2023-05-17T02:34:24.806Z,13.16
2023-05-17T02:36:53.220Z,13.13
2023-05-17T02:39:21.479Z,13.09
2023-05-17T02:41:49.929Z,13.06
2023-05-17T02:44:18.537Z,13.05
2023-05-17T02:46:46.858Z,13.05
2023-05-17T02:49:15.344Z,13.02
2023-05-17T02:51:43.729Z,12.99
2023-05-17T02:54:12.081Z,12.95
2023-05-17T02:56:40.413Z,12.93
2023-05-17T02:59:08.737Z,12.92
2023-05-17T03:01:38.243Z,12.91
2023-05-17T03:04:06.856Z,12.89
2023-05-17T03:06:35.124Z,12.88
2023-05-17T03:09:04.022Z,12.87
2023-05-17T03:11:33.190Z,12.85
2023-05-17T03:14:02.863Z,12.83
2023-05-17T03:16:32.451Z,12.80
2023-05-17T03:19:03.132Z,12.77
2023-05-17T03:21:31.799Z,12.75
2023-05-17T03:24:00.136Z,12.75
2023-05-17T03:26:28.604Z,12.73
2023-05-17T03:28:56.929Z,12.71
2023-05-17T03:31:26.196Z,12.68
2023-05-17T03:33:54.643Z,12.68
2023-05-17T03:36:23.510Z,12.68
2023-05-17T03:38:51.921Z,12.68
2023-05-17T03:41:20.416Z,12.67
2023-05-17T03:43:48.831Z,-43.60
2023-05-17T03:46:18.050Z,-128.00
2023-05-17T03:48:46.589Z,-128.00
2023-05-17T03:51:16.367Z,-128.00
2023-05-17T03:53:45.746Z,-128.00
2023-05-17T03:56:14.139Z,-128.00
2023-05-17T03:58:43.120Z,-128.00
2023-05-17T04:01:12.225Z,-128.00
2023-05-17T04:03:40.599Z,-128.00
2023-05-17T04:06:09.420Z,-128.00
2023-05-17T04:08:39.035Z,-128.00
2023-05-17T04:11:13.067Z,-128.00
2023-05-17T04:13:42.647Z,-15.50
2023-05-17T04:16:11.224Z,-128.00
2023-05-17T04:18:41.966Z,-128.00
2023-05-17T04:21:11.373Z,-128.00
2023-05-17T04:23:40.527Z,-128.00
2023-05-17T04:26:10.586Z,-128.00
2023-05-17T04:28:41.478Z,-128.00
2023-05-17T04:31:14.002Z,-128.00
2023-05-17T04:33:48.077Z,-128.00
2023-05-17T04:38:56.733Z,12.71
2023-05-17T04:41:27.992Z,12.67
2023-05-17T04:43:57.737Z,12.68
2023-05-17T04:46:31.286Z,12.68
2023-05-17T04:49:00.435Z,12.68
2023-05-17T04:51:30.762Z,12.69
2023-05-17T04:54:02.158Z,12.69
2023-05-17T04:56:31.347Z,12.66
2023-05-17T04:59:00.238Z,12.65
2023-05-17T05:01:30.946Z,12.64
2023-05-17T05:04:00.636Z,12.64
2023-05-17T05:06:29.914Z,12.64
2023-05-17T05:08:58.295Z,12.64
2023-05-17T05:11:28.268Z,12.66
2023-05-17T05:13:56.764Z,12.67
2023-05-17T05:16:25.181Z,12.67
2023-05-17T05:18:53.902Z,12.68
2023-05-17T05:21:22.752Z,12.69
2023-05-17T05:23:51.288Z,12.71
2023-05-17T05:26:19.622Z,12.72
2023-05-17T05:28:47.912Z,12.74
2023-05-17T05:31:16.235Z,12.75
2023-05-17T05:33:50.156Z,12.76
2023-05-17T05:36:18.591Z,12.76
2023-05-17T05:38:49.074Z,12.76
2023-05-17T05:41:17.496Z,12.76
2023-05-17T05:43:45.921Z,12.76
2023-05-17T05:46:14.772Z,12.76
2023-05-17T05:48:44.641Z,12.73
2023-05-17T05:51:13.094Z,12.71
2023-05-17T05:53:43.169Z,12.70
2023-05-17T05:56:11.652Z,12.71
2023-05-17T05:58:39.960Z,12.73
2023-05-17T06:01:08.577Z,12.76
2023-05-17T06:03:37.278Z,12.78
2023-05-17T06:06:05.996Z,12.80
2023-05-17T06:08:35.018Z,12.82
2023-05-17T06:11:03.564Z,12.82
2023-05-17T06:13:31.902Z,12.83
2023-05-17T06:16:00.336Z,12.83
2023-05-17T06:18:28.691Z,12.81
2023-05-17T06:20:57.167Z,12.81
2023-05-17T06:23:25.923Z,12.80
2023-05-17T06:25:54.173Z,12.81
2023-05-17T06:28:22.593Z,12.85
2023-05-17T06:30:51.089Z,12.89
2023-05-17T06:33:19.538Z,12.92
2023-05-17T06:35:56.592Z,12.94
2023-05-17T06:38:26.461Z,12.95
2023-05-17T06:40:56.116Z,12.96
2023-05-17T06:43:24.769Z,12.96
2023-05-17T06:45:53.327Z,12.98
2023-05-17T06:48:21.777Z,12.98
2023-05-17T06:50:50.280Z,13.00
2023-05-17T06:53:18.819Z,13.02
2023-05-17T06:55:47.163Z,13.04
2023-05-17T06:58:15.850Z,13.05
2023-05-17T07:00:44.264Z,13.07
2023-05-17T07:03:12.772Z,13.08
2023-05-17T07:05:41.071Z,13.07
2023-05-17T07:08:09.524Z,13.07
2023-05-17T07:10:37.754Z,13.07
2023-05-17T07:13:06.170Z,13.06
2023-05-17T07:15:34.602Z,13.06
2023-05-17T07:18:03.348Z,13.06
2023-05-17T07:20:32.038Z,13.07
2023-05-17T07:23:01.254Z,13.05
2023-05-17T07:25:30.023Z,13.05
2023-05-17T07:27:58.603Z,13.05
2023-05-17T07:30:27.104Z,13.05
2023-05-17T07:32:55.609Z,13.04
2023-05-17T07:35:24.008Z,13.03
2023-05-17T07:37:52.433Z,13.00
2023-05-17T07:40:22.077Z,13.00
2023-05-17T07:42:50.811Z,13.00
2023-05-17T07:45:19.399Z,13.01
2023-05-17T07:47:48.035Z,13.02
2023-05-17T07:50:16.613Z,13.01
2023-05-17T07:52:44.961Z,13.01
2023-05-17T07:55:14.698Z,13.02
2023-05-17T07:57:45.326Z,13.03
2023-05-17T08:00:14.454Z,13.03
2023-05-17T08:02:43.255Z,13.05
2023-05-17T08:05:12.481Z,13.07
2023-05-17T08:07:40.832Z,13.08
2023-05-17T08:10:09.686Z,13.09
2023-05-17T08:12:38.308Z,13.10
2023-05-17T08:15:07.691Z,13.13
2023-05-17T08:17:36.220Z,13.14
2023-05-17T08:20:08.163Z,13.14
2023-05-17T08:22:37.172Z,13.13
2023-05-17T08:25:05.907Z,13.13
2023-05-17T08:27:34.174Z,13.15
2023-05-17T08:30:04.131Z,13.20
2023-05-17T08:32:35.746Z,13.25
2023-05-17T08:35:04.905Z,13.27
2023-05-17T08:37:33.718Z,13.30
2023-05-17T08:40:02.266Z,13.32
2023-05-17T08:42:30.799Z,13.35
2023-05-17T08:45:00.019Z,13.35
2023-05-17T08:47:34.321Z,13.34
2023-05-17T08:50:07.043Z,13.32
2023-05-17T08:52:38.263Z,13.33
2023-05-17T08:55:10.631Z,13.32
2023-05-17T08:57:40.593Z,13.27
2023-05-17T09:00:15.101Z,13.26
2023-05-17T09:02:44.165Z,13.25
2023-05-17T09:05:14.277Z,13.25
2023-05-17T09:07:43.138Z,13.27
2023-05-17T09:10:13.764Z,13.30
2023-05-17T09:12:44.951Z,13.34
2023-05-17T09:15:15.510Z,13.36
2023-05-17T09:17:50.874Z,13.37
2023-05-17T09:20:34.159Z,13.38
2023-05-17T09:23:07.637Z,13.41
2023-05-17T09:25:37.266Z,13.40
2023-05-17T09:28:11.919Z,13.40
2023-05-17T09:30:42.166Z,13.41
2023-05-17T09:33:12.420Z,13.42
2023-05-17T09:35:44.058Z,13.42
2023-05-17T09:38:13.985Z,13.40
2023-05-17T09:40:47.947Z,13.36
2023-05-17T09:43:22.961Z,13.31
2023-05-17T09:45:58.009Z,13.29
2023-05-17T09:48:28.316Z,13.31
2023-05-17T09:50:56.771Z,13.32
2023-05-17T09:53:29.710Z,13.31
2023-05-17T09:56:00.897Z,13.33
2023-05-17T09:58:32.571Z,13.32
2023-05-17T10:01:06.127Z,13.32
2023-05-17T10:03:37.047Z,13.34
2023-05-17T10:06:13.441Z,13.32
2023-05-17T10:08:56.946Z,13.32
2023-05-17T10:11:34.410Z,13.34
2023-05-17T10:14:18.576Z,13.36
2023-05-17T10:16:54.514Z,13.36
2023-05-17T10:19:26.755Z,13.37
2023-05-17T10:22:00.243Z,13.39
2023-05-17T10:24:39.396Z,13.43
2023-05-17T10:27:08.390Z,13.46
2023-05-17T10:29:39.194Z,13.46
2023-05-17T10:32:08.195Z,13.46
2023-05-17T10:34:39.407Z,13.45
2023-05-17T10:37:08.177Z,13.44
2023-05-17T10:39:39.108Z,13.38
2023-05-17T10:42:15.257Z,13.34
2023-05-17T10:44:44.237Z,13.30
2023-05-17T10:47:15.714Z,13.27
2023-05-17T10:49:47.979Z,13.26
2023-05-17T10:52:32.206Z,13.27
2023-05-17T10:55:17.432Z,13.28
2023-05-17T10:58:24.679Z,13.29
2023-05-17T11:01:20.579Z,13.27
2023-05-17T11:03:59.128Z,13.24
2023-05-17T11:06:44.841Z,13.25
2023-05-17T11:09:28.493Z,13.25
2023-05-17T11:12:10.496Z,13.25
2023-05-17T11:15:06.273Z,13.24
2023-05-17T11:17:44.565Z,13.23
2023-05-17T11:20:18.846Z,13.18
2023-05-17T11:25:55.101Z,13.09
2023-05-17T11:28:27.046Z,13.06
2023-05-17T11:31:01.222Z,13.03
2023-05-17T11:33:43.790Z,13.00
2023-05-17T11:36:20.709Z,12.93
2023-05-17T11:39:11.318Z,12.82
2023-05-17T11:41:45.513Z,12.78
2023-05-17T11:44:15.294Z,12.78
2023-05-17T11:46:45.002Z,12.77
2023-05-17T11:49:20.319Z,12.72
2023-05-17T11:51:56.156Z,12.67
2023-05-17T11:54:26.288Z,12.64
2023-05-17T11:56:55.364Z,12.63
2023-05-17T11:59:23.723Z,12.62
2023-05-17T12:01:52.761Z,12.58
2023-05-17T12:04:26.015Z,12.51
2023-05-17T12:06:56.183Z,12.42
2023-05-17T12:09:26.572Z,12.34
2023-05-17T12:11:56.548Z,12.32
2023-05-17T12:14:24.975Z,12.30
2023-05-17T12:16:56.693Z,12.28
2023-05-17T12:19:27.285Z,12.19
2023-05-17T12:22:30.864Z,12.15
2023-05-17T12:25:04.292Z,12.11
2023-05-17T12:27:32.773Z,12.11
2023-05-17T12:30:15.592Z,12.09
2023-05-17T12:32:45.827Z,12.05
2023-05-17T12:35:14.605Z,12.02
2023-05-17T12:37:43.334Z,11.97
2023-05-17T12:40:12.287Z,11.90
2023-05-17T12:42:41.003Z,11.83
2023-05-17T12:45:13.076Z,11.82
2023-05-17T12:47:41.498Z,11.79
2023-05-17T12:50:11.491Z,11.77
2023-05-17T12:52:41.211Z,11.76
2023-05-17T12:55:13.547Z,11.78
2023-05-17T12:57:52.858Z,11.82
2023-05-17T13:00:21.763Z,11.82
2023-05-17T13:02:50.169Z,11.79
2023-05-17T13:05:23.080Z,11.80
2023-05-17T13:07:51.512Z,11.83
2023-05-17T13:10:26.244Z,11.85
2023-05-17T13:12:55.287Z,11.86
2023-05-17T13:15:31.229Z,11.84
2023-05-17T13:18:00.948Z,11.84
2023-05-17T13:20:29.685Z,11.83
2023-05-17T13:22:58.373Z,11.83
2023-05-17T13:25:26.688Z,11.81
2023-05-17T13:27:55.615Z,11.78
2023-05-17T13:30:24.122Z,11.78
2023-05-17T13:32:54.492Z,11.77
2023-05-17T13:35:23.036Z,11.75
2023-05-17T13:37:51.560Z,11.75
2023-05-17T13:40:19.809Z,11.75
2023-05-17T13:42:48.204Z,11.76
2023-05-17T13:45:16.599Z,11.73
2023-05-17T13:47:45.083Z,11.67
2023-05-17T13:50:17.414Z,11.61
2023-05-17T13:52:45.864Z,11.55
2023-05-17T13:55:14.163Z,11.50
2023-05-17T13:57:42.391Z,11.45
2023-05-17T14:00:11.355Z,11.41
2023-05-17T14:02:40.106Z,11.38
2023-05-17T14:05:10.017Z,11.37
2023-05-17T14:07:43.110Z,11.37
2023-05-17T14:10:15.453Z,11.36
2023-05-17T14:12:43.978Z,11.37
2023-05-17T14:15:12.250Z,11.37
2023-05-17T14:17:41.520Z,11.35
2023-05-17T14:20:10.712Z,11.33
2023-05-17T14:22:39.292Z,11.28
2023-05-17T14:25:08.664Z,11.24
2023-05-17T14:27:39.927Z,11.20
2023-05-17T14:30:10.553Z,11.15
2023-05-17T14:32:40.736Z,11.12
2023-05-17T14:35:10.022Z,11.07
2023-05-17T14:37:38.490Z,11.03
2023-05-17T14:40:07.441Z,10.96
2023-05-17T14:42:35.689Z,10.89
2023-05-17T14:45:04.488Z,10.82
2023-05-17T14:47:34.574Z,-128.00
2023-05-17T14:50:04.601Z,-128.00
2023-05-17T14:52:34.890Z,-128.00
2023-05-17T14:55:04.164Z,-128.00
2023-05-17T14:57:33.617Z,-128.00
2023-05-17T15:00:02.174Z,-128.00
2023-05-17T15:02:30.438Z,-128.00
2023-05-17T15:04:58.998Z,-128.00
2023-05-17T15:07:27.695Z,-128.00
2023-05-17T15:09:56.167Z,-128.00
2023-05-17T15:12:24.453Z,-128.00
2023-05-17T15:14:52.717Z,-128.00
2023-05-17T15:17:21.892Z,-128.00
2023-05-17T15:19:51.652Z,-128.00
2023-05-17T15:22:20.235Z,-128.00
2023-05-17T15:24:48.667Z,-128.00
2023-05-17T15:27:17.494Z,-128.00
2023-05-17T15:29:46.110Z,-128.00
2023-05-17T15:32:14.430Z,-128.00
2023-05-17T15:34:42.771Z,-128.00
2023-05-17T15:37:11.100Z,-128.00
2023-05-17T15:39:39.356Z,-128.00
2023-05-17T15:42:07.695Z,-128.00
2023-05-17T15:44:36.186Z,-128.00
2023-05-17T15:47:04.965Z,-128.00
2023-05-17T15:49:33.708Z,-128.00
2023-05-17T15:52:02.167Z,-128.00
2023-05-17T15:54:33.064Z,-128.00
2023-05-17T15:57:01.505Z,-128.00
2023-05-17T15:59:30.010Z,-128.00
2023-05-17T16:01:58.365Z,-128.00
2023-05-17T16:04:26.843Z,-128.00
2023-05-17T16:06:55.211Z,-128.00
2023-05-17T16:09:23.766Z,-128.00
2023-05-17T16:11:52.169Z,-128.00
2023-05-17T16:14:20.507Z,-128.00
2023-05-17T16:16:48.960Z,-128.00
2023-05-17T16:19:17.339Z,-128.00
2023-05-17T16:21:49.806Z,-128.00
2023-05-17T16:24:19.623Z,-128.00
2023-05-17T16:26:48.323Z,-128.00
2023-05-17T16:29:18.573Z,-128.00
2023-05-17T16:31:48.798Z,-128.00
2023-05-17T16:34:17.360Z,-128.00
2023-05-17T16:36:47.961Z,-128.00
2023-05-17T16:39:16.254Z,-128.00
2023-05-17T16:41:44.729Z,-128.00
2023-05-17T16:44:13.070Z,-128.00
2023-05-17T16:46:41.400Z,-128.00
2023-05-17T16:49:09.798Z,-128.00
2023-05-17T16:51:38.021Z,-128.00
2023-05-17T16:54:06.386Z,-128.00
2023-05-17T16:56:34.751Z,-128.00
2023-05-17T16:59:03.159Z,-128.00
2023-05-17T17:01:31.458Z,-128.00
2023-05-17T17:04:00.036Z,-128.00
2023-05-17T17:06:28.662Z,-128.00
2023-05-17T17:08:56.990Z,-128.00
2023-05-17T17:11:26.320Z,-128.00
2023-05-17T17:13:54.701Z,-128.00
2023-05-17T17:16:23.061Z,-128.00
2023-05-17T17:18:51.483Z,-128.00
2023-05-17T17:21:19.971Z,-128.00
2023-05-17T17:23:48.863Z,-128.00
2023-05-17T17:26:17.491Z,-128.00
2023-05-17T17:28:45.753Z,-128.00
2023-05-17T17:31:14.138Z,-128.00
2023-05-17T17:33:42.505Z,-128.00
2023-05-17T17:36:11.536Z,-128.00
2023-05-17T17:38:45.590Z,-128.00
2023-05-17T17:41:14.026Z,-128.00
2023-05-17T17:43:43.180Z,-128.00
2023-05-17T17:46:11.891Z,-128.00
2023-05-17T17:48:40.438Z,-128.00
2023-05-17T17:51:08.907Z,-128.00
2023-05-17T17:53:37.222Z,-128.00
2023-05-17T17:56:07.173Z,-128.00
2023-05-17T17:58:35.689Z,-128.00
2023-05-17T18:01:04.254Z,-128.00
2023-05-17T18:03:32.715Z,-128.00
2023-05-17T18:06:01.283Z,-128.00
2023-05-17T18:10:27.925Z,9.49
2023-05-17T18:12:57.303Z,9.45
2023-05-17T18:15:25.936Z,9.43
2023-05-17T18:17:54.993Z,9.44
2023-05-17T18:20:24.690Z,9.44
2023-05-17T18:22:53.292Z,9.43
2023-05-17T18:25:21.831Z,9.43
2023-05-17T18:27:50.290Z,9.44
2023-05-17T18:30:19.119Z,9.46
2023-05-17T18:32:47.525Z,9.47
2023-05-17T18:35:22.987Z,9.50
2023-05-17T18:37:52.720Z,9.53
2023-05-17T18:40:22.205Z,9.55
2023-05-17T18:42:50.800Z,9.57
2023-05-17T18:45:22.370Z,9.57
2023-05-17T18:47:51.009Z,9.57
2023-05-17T18:50:19.569Z,9.57
2023-05-17T18:52:48.132Z,9.59
2023-05-17T18:55:16.832Z,9.60
2023-05-17T18:57:45.256Z,9.62
2023-05-17T19:00:14.194Z,9.63
2023-05-17T19:02:42.686Z,9.63
2023-05-17T19:05:10.986Z,9.63
2023-05-17T19:07:39.431Z,9.61
2023-05-17T19:10:08.370Z,9.59
2023-05-17T19:12:36.959Z,9.59
2023-05-17T19:15:05.762Z,9.59
2023-05-17T19:17:34.202Z,9.59
2023-05-17T19:20:04.303Z,9.59
2023-05-17T19:22:32.844Z,9.58
2023-05-17T19:25:01.226Z,9.59
2023-05-17T19:27:29.718Z,9.58
2023-05-17T19:29:58.030Z,9.59
2023-05-17T19:32:27.151Z,9.58
2023-05-17T19:34:55.776Z,9.60
2023-05-17T19:37:24.234Z,9.61
2023-05-17T19:39:52.668Z,9.62
2023-05-17T19:42:21.067Z,9.62
2023-05-17T19:44:49.340Z,9.62
2023-05-17T19:47:17.915Z,9.63
2023-05-17T19:49:46.225Z,9.65
2023-05-17T19:52:14.773Z,9.65
2023-05-17T19:54:43.112Z,9.64
2023-05-17T19:57:11.482Z,9.65
2023-05-17T19:59:40.039Z,9.65
2023-05-17T20:02:08.417Z,9.65
2023-05-17T20:04:36.868Z,9.64
2023-05-17T20:07:05.265Z,9.64
2023-05-17T20:09:33.603Z,9.63
2023-05-17T20:12:02.208Z,9.63
2023-05-17T20:14:31.059Z,9.63
2023-05-17T20:16:59.760Z,9.64
2023-05-17T20:19:28.136Z,9.65
2023-05-17T20:21:56.752Z,9.64
2023-05-17T20:24:26.027Z,9.64
2023-05-17T20:26:54.465Z,9.64
2023-05-17T20:29:22.828Z,9.64
2023-05-17T20:31:51.282Z,9.62
2023-05-17T20:34:21.203Z,9.59
2023-05-17T20:36:49.644Z,9.59
2023-05-17T20:39:19.175Z,9.60
2023-05-17T20:41:48.939Z,9.61
2023-05-17T20:44:19.590Z,9.63
2023-05-17T20:46:52.111Z,9.63
2023-05-17T20:49:22.470Z,9.64
2023-05-17T20:51:51.351Z,9.65
2023-05-17T20:54:19.645Z,9.62
2023-05-17T20:56:48.772Z,9.59
2023-05-17T20:59:17.091Z,9.56
2023-05-17T21:01:45.866Z,9.54
2023-05-17T21:04:14.375Z,9.53
2023-05-17T21:06:44.488Z,9.51
2023-05-17T21:09:13.041Z,9.50
2023-05-17T21:11:41.485Z,9.51
2023-05-17T21:14:09.946Z,9.51
2023-05-17T21:16:38.399Z,9.51
2023-05-17T21:19:06.909Z,9.49
2023-05-17T21:21:35.428Z,9.49
2023-05-17T21:24:03.861Z,9.49
2023-05-17T21:26:32.234Z,9.49
2023-05-17T21:29:00.666Z,9.48
2023-05-17T21:31:31.786Z,9.49
2023-05-17T21:34:00.176Z,9.51
2023-05-17T21:36:28.425Z,9.51
2023-05-17T21:38:56.964Z,9.50
2023-05-17T21:41:25.593Z,9.49
2023-05-17T21:43:53.941Z,9.50
2023-05-17T21:46:22.400Z,9.47
2023-05-17T21:48:50.836Z,9.45
2023-05-17T21:51:19.454Z,9.45
2023-05-17T21:53:50.326Z,9.44
2023-05-17T21:56:18.688Z,9.46
2023-05-17T21:58:48.963Z,9.46
2023-05-17T22:01:20.164Z,9.46
2023-05-17T22:03:54.074Z,9.47
2023-05-17T22:06:23.668Z,9.47
2023-05-17T22:08:52.170Z,9.46
2023-05-17T22:11:23.623Z,9.45
2023-05-17T22:13:52.255Z,9.43
2023-05-17T22:16:25.626Z,9.42
2023-05-17T22:18:54.336Z,9.42
2023-05-17T22:21:22.844Z,9.42
2023-05-17T22:23:51.158Z,9.42
2023-05-17T22:26:20.070Z,9.43
2023-05-17T22:28:48.765Z,9.45
2023-05-17T22:31:18.737Z,9.46
2023-05-17T22:33:47.542Z,9.48
2023-05-17T22:36:17.357Z,9.48
2023-05-17T22:38:46.605Z,9.49
2023-05-17T22:41:15.105Z,9.49
2023-05-17T22:43:43.549Z,9.49
2023-05-17T22:46:11.967Z,9.49
2023-05-17T22:48:40.647Z,9.50
2023-05-17T22:51:09.116Z,9.50
2023-05-17T22:53:37.517Z,9.49
2023-05-17T22:56:06.673Z,9.50
2023-05-17T22:58:35.035Z,9.49
2023-05-17T23:01:03.593Z,9.49
2023-05-17T23:03:32.394Z,9.49
2023-05-17T23:06:05.216Z,9.49
2023-05-17T23:08:33.741Z,9.49
2023-05-17T23:11:04.973Z,9.48
2023-05-17T23:13:33.971Z,9.48
2023-05-17T23:16:02.471Z,9.48
2023-05-17T23:18:30.888Z,9.48
2023-05-17T23:21:00.324Z,9.49
2023-05-17T23:23:30.039Z,9.50
2023-05-17T23:25:58.833Z,9.50
2023-05-17T23:28:27.241Z,9.49
2023-05-17T23:30:55.711Z,9.47
2023-05-17T23:33:24.660Z,9.45
2023-05-17T23:35:55.389Z,9.44
2023-05-17T23:38:23.985Z,9.42
2023-05-17T23:40:56.490Z,9.42
2023-05-17T23:43:24.956Z,9.42
2023-05-17T23:45:53.497Z,9.42
2023-05-17T23:48:25.670Z,9.42
2023-05-17T23:50:54.106Z,9.43
2023-05-17T23:53:23.701Z,9.41
2023-05-17T23:55:52.031Z,9.39
2023-05-17T23:58:20.481Z,9.37
